SBOSBO FAB / EGLF
Speedbird OnlineSpeedbird Online FAB / EGLF

Farnborough Airport
08:28 15.9°C

Location Farnborough, United Kingdom
Latitude: 51.2757987976
Longitude: -0.776332974434
Local Time 08:28 on 18 Jul 2024
UTC +1 hours (Europe/London)
METAR EGLF 180650Z VRB01KT 9000 FEW004 BKN040 16/14 Q1021
TAF TAF EGLF 180604Z 1806/1815 VRB03KT CAVOK PROB30 1806/1808 4000 BR BECMG 1812/1815 17010KT
Weather As Of 18 Jul 2024 08:28
Description Broken clouds
Wind 2 km/h from North (0°)
Cloud Cover 75%
Precipitation Rain: none, Snow: none
Sunrise 05:08
Sunset 21:09
Web Airport Website | Wikipedia
Codes IATA: FAB
ICAO: EGLF
Altitude 73 Meter / 238 Feet
Distance 68 KM / 42 Miles
from London.
Runways
RunwayLength (m)Surface
062440Asphalt
242440Asphalt
Radio
TypeDescriptionFrequency
APPAPP134.35
ATISATIS128.4
DIRDIRECTOR130.05
LARSFarnborough East Radar123.225
LARSFarnborough West Radar125.25
LARSFarnborough North Radar132.8
MISCFarnborough Fire121.6
OPSTAG Aviation130.375
TWRTWR122.5
Live ATC



Support Speedbird Online

© 2017-2024 Speedbird Online